createdAt,value
2019-03-29T00:00:25.158Z,84.63
2019-03-29T00:01:25.233Z,84.00
2019-03-29T00:02:25.089Z,84.21
2019-03-29T00:03:25.075Z,83.59
2019-03-29T00:04:25.062Z,83.49
2019-03-29T00:05:25.055Z,83.59
2019-03-29T00:06:25.110Z,83.25
2019-03-29T00:07:38.532Z,83.28
2019-03-29T00:08:26.042Z,82.97
2019-03-29T00:09:25.008Z,83.39
2019-03-29T00:10:25.003Z,83.49
2019-03-29T00:11:24.995Z,83.55
2019-03-29T00:12:25.046Z,83.59
2019-03-29T00:13:25.014Z,83.28
2019-03-29T00:14:24.956Z,83.49
2019-03-29T00:15:24.942Z,83.70
2019-03-29T00:16:25.335Z,83.59
2019-03-29T00:17:24.941Z,84.25
2019-03-29T00:18:24.931Z,84.87
2019-03-29T00:19:24.961Z,85.18
2019-03-29T00:20:24.887Z,84.87
2019-03-29T00:21:24.883Z,85.60
2019-03-29T00:22:24.868Z,85.60
2019-03-29T00:23:24.866Z,85.18
2019-03-29T00:24:24.848Z,85.80
2019-03-29T00:25:24.893Z,85.60
2019-03-29T00:26:25.596Z,85.39
2019-03-29T00:27:24.816Z,86.01
2019-03-29T00:28:24.808Z,86.21
2019-03-29T00:29:24.802Z,85.80
2019-03-29T00:30:24.778Z,86.42
2019-03-29T00:31:24.824Z,85.94
2019-03-29T00:32:24.756Z,86.15
2019-03-29T00:33:24.745Z,86.46
2019-03-29T00:34:24.734Z,86.46
2019-03-29T00:35:24.725Z,86.46
2019-03-29T00:36:25.317Z,85.70
2019-03-29T00:37:24.765Z,85.53
2019-03-29T00:38:24.696Z,85.70
2019-03-29T00:39:24.737Z,85.53
2019-03-29T00:40:24.666Z,85.53
2019-03-29T00:41:25.099Z,85.70
2019-03-29T00:42:24.648Z,85.84
2019-03-29T00:43:24.652Z,86.36
2019-03-29T00:44:24.629Z,85.53
2019-03-29T00:45:24.672Z,86.25
2019-03-29T00:46:24.601Z,85.94
2019-03-29T00:47:24.600Z,85.42
2019-03-29T00:48:24.577Z,85.42
2019-03-29T00:49:24.574Z,85.02
2019-03-29T00:50:24.644Z,85.22
2019-03-29T00:51:24.984Z,84.91
2019-03-29T00:52:24.545Z,84.39
2019-03-29T00:53:24.536Z,83.36
2019-03-29T00:54:24.528Z,83.98
2019-03-29T00:55:24.551Z,83.53
2019-03-29T00:56:24.506Z,83.42
2019-03-29T00:57:24.493Z,83.56
2019-03-29T00:58:24.474Z,83.46
2019-03-29T00:59:24.505Z,83.73
2019-03-29T01:00:24.459Z,83.87
2019-03-29T01:01:26.011Z,84.81
2019-03-29T01:02:24.497Z,84.39
2019-03-29T01:03:24.419Z,84.91
2019-03-29T01:04:24.409Z,83.91
2019-03-29T01:05:24.401Z,84.43
2019-03-29T01:06:24.399Z,84.33
2019-03-29T01:07:24.422Z,84.95
2019-03-29T01:08:24.360Z,85.16
2019-03-29T01:09:24.409Z,85.36
2019-03-29T01:10:24.341Z,85.47
2019-03-29T01:11:24.334Z,85.78
2019-03-29T01:12:24.369Z,85.57
2019-03-29T01:13:24.938Z,85.05
2019-03-29T01:14:24.301Z,85.26
2019-03-29T01:15:24.338Z,85.47
2019-03-29T01:16:24.279Z,85.68
2019-03-29T01:17:24.270Z,84.95
2019-03-29T01:18:24.304Z,85.47
2019-03-29T01:19:24.245Z,85.47
2019-03-29T01:20:24.230Z,84.74
2019-03-29T01:21:24.222Z,84.74
2019-03-29T01:22:24.229Z,84.95
2019-03-29T01:23:24.356Z,84.84
2019-03-29T01:24:24.189Z,86.40
2019-03-29T01:25:24.226Z,85.57
2019-03-29T01:26:24.181Z,86.29
2019-03-29T01:27:24.166Z,85.88
2019-03-29T01:28:24.149Z,85.57
2019-03-29T01:29:24.189Z,84.95
2019-03-29T01:30:24.123Z,85.19
2019-03-29T01:31:24.140Z,85.88
2019-03-29T01:32:24.103Z,86.09
2019-03-29T01:33:24.325Z,86.09
2019-03-29T01:34:24.115Z,86.19
2019-03-29T01:35:24.104Z,86.09
2019-03-29T01:36:24.110Z,86.09
2019-03-29T01:37:24.062Z,86.50
2019-03-29T01:38:24.567Z,85.36
2019-03-29T01:39:24.054Z,85.05
2019-03-29T01:40:24.019Z,84.33
2019-03-29T01:41:24.046Z,84.64
2019-03-29T01:42:24.012Z,85.26
2019-03-29T01:43:24.028Z,85.36
2019-03-29T01:44:24.052Z,85.05
2019-03-29T01:45:23.958Z,85.19
2019-03-29T01:46:23.944Z,85.05
2019-03-29T01:47:23.941Z,85.40
2019-03-29T01:48:23.930Z,85.61
2019-03-29T01:49:23.954Z,86.33
2019-03-29T01:50:23.901Z,86.13
2019-03-29T01:51:23.931Z,86.65
2019-03-29T01:52:23.879Z,87.27
2019-03-29T01:53:23.876Z,87.37
2019-03-29T01:54:23.909Z,87.99
2019-03-29T01:55:23.856Z,87.06
2019-03-29T01:56:23.834Z,87.06
2019-03-29T01:57:23.836Z,86.85
2019-03-29T01:58:25.010Z,87.37
2019-03-29T01:59:23.815Z,88.20
2019-03-29T02:00:23.834Z,87.74
2019-03-29T02:01:23.788Z,87.95
2019-03-29T02:02:23.795Z,87.33
2019-03-29T02:03:23.859Z,86.71
2019-03-29T02:04:23.788Z,87.02
2019-03-29T02:05:23.794Z,86.91
2019-03-29T02:06:23.726Z,87.64
2019-03-29T02:07:23.726Z,87.54
2019-03-29T02:08:35.131Z,87.54
2019-03-29T02:09:24.702Z,86.91
2019-03-29T02:10:23.791Z,86.40
2019-03-29T02:11:23.674Z,85.57
2019-03-29T02:12:23.734Z,85.47
2019-03-29T02:13:23.661Z,85.78
2019-03-29T02:14:23.649Z,86.81
2019-03-29T02:15:23.636Z,86.54
2019-03-29T02:16:23.633Z,86.02
2019-03-29T02:17:23.607Z,86.44
2019-03-29T02:18:23.642Z,86.96
2019-03-29T02:19:23.583Z,87.27
2019-03-29T02:20:23.905Z,87.16
2019-03-29T02:21:23.567Z,86.96
2019-03-29T02:22:23.554Z,86.96
2019-03-29T02:23:23.542Z,87.62
2019-03-29T02:24:24.013Z,87.99
2019-03-29T02:25:23.537Z,88.24
2019-03-29T02:26:23.552Z,88.13
2019-03-29T02:27:23.505Z,87.62
2019-03-29T02:28:23.495Z,87.68
2019-03-29T02:29:23.475Z,88.13
2019-03-29T02:30:23.476Z,87.62
2019-03-29T02:31:25.718Z,88.13
2019-03-29T02:32:24.927Z,87.51
2019-03-29T02:33:23.438Z,87.62
2019-03-29T02:34:23.441Z,87.82
2019-03-29T02:35:23.456Z,88.13
2019-03-29T02:36:23.418Z,88.07
2019-03-29T02:37:23.477Z,88.79
2019-03-29T02:38:23.701Z,88.79
2019-03-29T02:39:23.376Z,88.90
2019-03-29T02:40:23.353Z,88.69
2019-03-29T02:41:23.368Z,89.31
2019-03-29T02:42:23.346Z,88.07
2019-03-29T02:43:23.444Z,88.18
2019-03-29T02:44:23.327Z,88.18
2019-03-29T02:45:23.301Z,87.97
2019-03-29T02:46:23.515Z,87.97
2019-03-29T02:47:23.290Z,87.97
2019-03-29T02:48:23.267Z,88.07
2019-03-29T02:49:23.254Z,87.24
2019-03-29T02:50:23.249Z,87.24
2019-03-29T02:51:23.241Z,87.04
2019-03-29T02:52:23.271Z,86.93
2019-03-29T02:53:23.217Z,87.04
2019-03-29T02:54:23.210Z,87.14
2019-03-29T02:55:23.230Z,86.93
2019-03-29T02:56:23.177Z,86.93
2019-03-29T02:57:23.218Z,87.04
2019-03-29T02:58:23.163Z,87.24
2019-03-29T02:59:23.147Z,87.38
2019-03-29T03:00:23.134Z,88.21
2019-03-29T03:01:23.171Z,87.90
2019-03-29T03:02:26.216Z,89.19
2019-03-29T03:03:23.106Z,88.88
2019-03-29T03:04:23.117Z,89.71
2019-03-29T03:05:23.095Z,89.19
2019-03-29T03:06:23.074Z,89.29
2019-03-29T03:07:23.102Z,89.19
2019-03-29T03:08:23.046Z,89.81
2019-03-29T03:09:23.035Z,90.12
2019-03-29T03:10:23.028Z,89.92
2019-03-29T03:11:23.017Z,89.98
2019-03-29T03:12:23.008Z,90.19
2019-03-29T03:13:23.051Z,89.87
2019-03-29T03:14:22.987Z,89.62
2019-03-29T03:15:23.029Z,89.11
2019-03-29T03:16:22.965Z,87.80
2019-03-29T03:17:22.949Z,88.21
2019-03-29T03:18:22.941Z,88.39
2019-03-29T03:19:23.072Z,88.07
2019-03-29T03:20:22.925Z,88.69
2019-03-29T03:21:22.922Z,89.11
2019-03-29T03:22:22.897Z,89.00
2019-03-29T03:23:22.932Z,88.79
2019-03-29T03:24:22.922Z,88.79
2019-03-29T03:25:22.904Z,88.28
2019-03-29T03:26:22.860Z,87.14
2019-03-29T03:27:22.836Z,87.28
2019-03-29T03:28:22.822Z,87.07
2019-03-29T03:29:22.863Z,87.70
2019-03-29T03:30:22.841Z,88.21
2019-03-29T03:31:22.841Z,88.73
2019-03-29T03:32:22.780Z,87.95
2019-03-29T03:33:22.847Z,89.25
2019-03-29T03:34:22.840Z,88.84
2019-03-29T03:35:22.762Z,88.88
2019-03-29T03:36:22.784Z,89.56
2019-03-29T03:37:22.770Z,89.09
2019-03-29T03:38:22.719Z,89.09
2019-03-29T03:39:31.359Z,89.29
2019-03-29T03:40:23.702Z,89.46
2019-03-29T03:41:22.731Z,89.36
2019-03-29T03:42:22.745Z,88.94
2019-03-29T03:43:22.669Z,88.79
2019-03-29T03:44:22.661Z,89.00
2019-03-29T03:45:22.652Z,88.84
2019-03-29T03:46:22.627Z,89.11
2019-03-29T03:47:22.624Z,89.42
2019-03-29T03:48:22.658Z,88.69
2019-03-29T03:49:22.644Z,89.00
2019-03-29T03:50:22.590Z,88.94
2019-03-29T03:51:22.592Z,88.53
2019-03-29T03:52:22.567Z,88.88
2019-03-29T03:53:22.554Z,89.04
2019-03-29T03:54:22.548Z,90.60
2019-03-29T03:55:22.584Z,89.67
2019-03-29T03:56:22.528Z,89.56
2019-03-29T03:57:22.600Z,90.19
2019-03-29T03:58:22.516Z,89.77
2019-03-29T03:59:22.515Z,89.46
2019-03-29T04:00:22.480Z,89.67
2019-03-29T04:01:22.506Z,89.46
2019-03-29T04:02:22.466Z,89.25
2019-03-29T04:03:22.438Z,89.56
2019-03-29T04:04:22.427Z,89.46
2019-03-29T04:05:22.421Z,89.67
2019-03-29T04:06:22.404Z,89.81
2019-03-29T04:07:22.452Z,89.98
2019-03-29T04:08:22.384Z,90.81
2019-03-29T04:09:22.373Z,90.19
2019-03-29T04:10:22.363Z,90.39
2019-03-29T04:11:22.353Z,90.39
2019-03-29T04:12:22.381Z,90.02
2019-03-29T04:13:22.380Z,90.50
2019-03-29T04:14:22.326Z,90.54
2019-03-29T04:15:22.312Z,90.70
2019-03-29T04:16:22.373Z,90.91
2019-03-29T04:17:22.289Z,91.12
2019-03-29T04:18:22.283Z,90.97
2019-03-29T04:19:22.277Z,91.08
2019-03-29T04:20:22.298Z,91.28
2019-03-29T04:21:22.292Z,90.45
2019-03-29T04:22:22.233Z,90.35
2019-03-29T04:23:22.232Z,89.94
2019-03-29T04:24:22.241Z,90.04
2019-03-29T04:25:22.239Z,90.56
2019-03-29T04:26:22.195Z,90.66
2019-03-29T04:27:22.236Z,89.94
2019-03-29T04:28:22.184Z,89.94
2019-03-29T04:29:22.154Z,89.94
2019-03-29T04:30:22.138Z,90.14
2019-03-29T04:31:22.139Z,90.04
2019-03-29T04:32:22.144Z,89.94
2019-03-29T04:33:22.143Z,90.35
2019-03-29T04:34:22.107Z,89.25
2019-03-29T04:35:22.087Z,88.84
2019-03-29T04:36:22.119Z,89.67
2019-03-29T04:37:22.100Z,90.12
2019-03-29T04:38:22.081Z,90.08
2019-03-29T04:39:22.045Z,90.70
2019-03-29T04:40:22.039Z,90.12
2019-03-29T04:41:22.066Z,90.64
2019-03-29T04:42:22.014Z,90.64
2019-03-29T04:43:22.007Z,90.50
2019-03-29T04:44:22.007Z,90.54
2019-03-29T04:45:21.978Z,90.75
2019-03-29T04:46:22.055Z,90.64
2019-03-29T04:47:21.996Z,91.37
2019-03-29T04:48:21.951Z,91.47
2019-03-29T04:49:21.928Z,91.53
2019-03-29T04:50:22.014Z,91.02
2019-03-29T04:51:21.917Z,91.02
2019-03-29T04:52:21.895Z,90.75
2019-03-29T04:53:21.937Z,91.06
2019-03-29T04:54:21.871Z,91.27
2019-03-29T04:55:21.878Z,91.06
2019-03-29T04:56:21.853Z,91.06
2019-03-29T04:57:21.881Z,91.58
2019-03-29T04:58:21.841Z,91.43
2019-03-29T04:59:21.841Z,91.06
2019-03-29T05:00:21.811Z,90.75
2019-03-29T05:01:21.854Z,90.33
2019-03-29T05:02:21.794Z,90.23
2019-03-29T05:03:21.775Z,89.92
2019-03-29T05:04:21.759Z,90.12
2019-03-29T05:05:21.818Z,90.54
2019-03-29T05:06:21.739Z,90.91
2019-03-29T05:07:21.738Z,90.54
2019-03-29T05:08:21.754Z,90.08
2019-03-29T05:09:21.758Z,90.54
2019-03-29T05:10:22.050Z,90.33
2019-03-29T05:11:21.696Z,90.12
2019-03-29T05:12:21.716Z,90.12
2019-03-29T05:13:21.667Z,90.44
2019-03-29T05:14:21.671Z,90.44
2019-03-29T05:15:21.657Z,89.71
2019-03-29T05:16:21.626Z,90.02
2019-03-29T05:17:21.635Z,90.95
2019-03-29T05:18:21.664Z,91.16
2019-03-29T05:19:21.606Z,91.47
2019-03-29T05:20:21.604Z,90.70
2019-03-29T05:21:21.573Z,91.22
2019-03-29T05:22:21.574Z,90.60
2019-03-29T05:23:21.562Z,90.50
2019-03-29T05:24:21.595Z,90.39
2019-03-29T05:25:21.529Z,91.12
2019-03-29T05:26:21.565Z,90.39
2019-03-29T05:27:21.510Z,90.44
2019-03-29T05:28:21.513Z,89.81
2019-03-29T05:29:21.485Z,89.29
2019-03-29T05:30:21.527Z,89.50
2019-03-29T05:31:21.475Z,89.19
2019-03-29T05:32:21.473Z,89.19
2019-03-29T05:33:21.510Z,89.40
2019-03-29T05:34:21.435Z,89.19
2019-03-29T05:35:21.449Z,89.50
2019-03-29T05:36:21.408Z,89.34
2019-03-29T05:37:21.403Z,88.88
2019-03-29T05:38:21.400Z,89.81
2019-03-29T05:39:21.425Z,90.23
2019-03-29T05:40:34.229Z,90.23
2019-03-29T05:41:22.369Z,89.92
2019-03-29T05:42:21.367Z,90.54
2019-03-29T05:43:21.384Z,90.54
2019-03-29T05:44:21.380Z,90.54
2019-03-29T05:45:21.365Z,89.67
2019-03-29T05:46:21.302Z,89.67
2019-03-29T05:47:21.311Z,89.25
2019-03-29T05:48:21.388Z,89.67
2019-03-29T05:49:21.270Z,89.15
2019-03-29T05:50:21.297Z,88.94
2019-03-29T05:51:21.245Z,89.15
2019-03-29T05:52:21.278Z,89.25
2019-03-29T05:53:21.224Z,89.25
2019-03-29T05:54:21.218Z,90.25
2019-03-29T05:55:31.961Z,89.21
2019-03-29T05:56:22.183Z,89.42
2019-03-29T05:57:21.172Z,88.79
2019-03-29T05:58:21.212Z,87.97
2019-03-29T05:59:21.153Z,88.18
2019-03-29T06:00:21.186Z,88.18
2019-03-29T06:01:21.181Z,88.69
2019-03-29T06:02:21.151Z,89.00
2019-03-29T06:03:21.148Z,88.76
2019-03-29T06:04:21.157Z,89.31
2019-03-29T06:05:21.116Z,88.07
2019-03-29T06:06:21.126Z,88.48
2019-03-29T06:07:21.131Z,88.07
2019-03-29T06:08:21.059Z,88.18
2019-03-29T06:09:21.054Z,89.21
2019-03-29T06:10:21.030Z,89.00
2019-03-29T06:11:21.114Z,88.79
2019-03-29T06:12:21.033Z,88.59
2019-03-29T06:13:21.049Z,89.42
2019-03-29T06:14:21.040Z,89.69
2019-03-29T06:15:20.986Z,90.10
2019-03-29T06:16:21.020Z,89.28
2019-03-29T06:17:20.966Z,88.76
2019-03-29T06:18:20.950Z,89.13
2019-03-29T06:19:20.983Z,89.23
2019-03-29T06:20:20.922Z,88.71
2019-03-29T06:21:20.913Z,89.13
2019-03-29T06:22:20.903Z,88.40
2019-03-29T06:23:20.901Z,88.67
2019-03-29T06:24:20.879Z,88.92
2019-03-29T06:25:21.046Z,87.64
2019-03-29T06:26:20.858Z,87.74
2019-03-29T06:27:20.886Z,87.95
2019-03-29T06:28:20.833Z,87.95
2019-03-29T06:29:20.834Z,87.95
2019-03-29T06:30:20.810Z,88.16
2019-03-29T06:31:20.812Z,88.06
2019-03-29T06:32:20.788Z,87.85
2019-03-29T06:33:20.817Z,87.43
2019-03-29T06:34:20.793Z,87.64
2019-03-29T06:35:20.802Z,87.64
2019-03-29T06:36:20.763Z,87.64
2019-03-29T06:37:20.748Z,88.01
2019-03-29T06:38:20.771Z,87.08
2019-03-29T06:39:21.387Z,86.77
2019-03-29T06:40:20.764Z,86.98
2019-03-29T06:41:20.748Z,86.98
2019-03-29T06:42:20.682Z,87.39
2019-03-29T06:43:20.720Z,87.49
2019-03-29T06:44:20.717Z,87.60
2019-03-29T06:45:20.644Z,87.87
2019-03-29T06:46:20.754Z,87.76
2019-03-29T06:47:20.664Z,87.97
2019-03-29T06:48:20.623Z,87.35
2019-03-29T06:49:20.616Z,87.46
2019-03-29T06:50:20.605Z,87.25
2019-03-29T06:51:20.596Z,87.00
2019-03-29T06:52:20.603Z,87.10
2019-03-29T06:53:20.602Z,87.21
2019-03-29T06:54:20.578Z,86.24
2019-03-29T06:55:20.547Z,86.03
2019-03-29T06:56:20.597Z,86.03
2019-03-29T06:57:20.516Z,85.72
2019-03-29T06:58:20.575Z,85.99
2019-03-29T06:59:20.496Z,86.24
2019-03-29T07:00:20.531Z,85.89
2019-03-29T07:01:20.475Z,84.96
2019-03-29T07:02:20.533Z,85.06
2019-03-29T07:03:20.461Z,84.96
2019-03-29T07:04:20.437Z,85.06
2019-03-29T07:05:20.519Z,85.06
2019-03-29T07:06:20.420Z,85.17
2019-03-29T07:07:20.417Z,84.75
2019-03-29T07:08:20.426Z,85.27
2019-03-29T07:09:20.423Z,85.27
2019-03-29T07:10:20.471Z,84.61
2019-03-29T07:11:20.958Z,85.13
2019-03-29T07:12:20.421Z,84.72
2019-03-29T07:13:20.958Z,84.34
2019-03-29T07:14:20.417Z,84.09
2019-03-29T07:15:20.318Z,85.33
2019-03-29T07:16:20.324Z,84.41
2019-03-29T07:17:20.333Z,84.61
2019-03-29T07:18:20.463Z,84.09
2019-03-29T07:19:20.295Z,83.33
2019-03-29T07:20:20.303Z,83.33
2019-03-29T07:21:21.883Z,84.06
2019-03-29T07:22:22.053Z,83.23
2019-03-29T07:23:20.276Z,83.54
2019-03-29T07:24:20.218Z,83.40
2019-03-29T07:25:20.273Z,83.29
2019-03-29T07:26:20.232Z,82.98
2019-03-29T07:27:20.190Z,83.40
2019-03-29T07:28:20.184Z,82.98
2019-03-29T07:29:20.156Z,82.26
2019-03-29T07:30:20.148Z,82.37
2019-03-29T07:31:20.246Z,82.02
2019-03-29T07:32:20.177Z,82.37
2019-03-29T07:33:20.149Z,82.47
2019-03-29T07:34:20.115Z,82.78
2019-03-29T07:35:20.159Z,83.05
2019-03-29T07:36:20.170Z,83.26
2019-03-29T07:37:20.091Z,83.56
2019-03-29T07:38:20.068Z,83.05
2019-03-29T07:39:20.051Z,82.70
2019-03-29T07:40:20.084Z,83.32
2019-03-29T07:41:31.091Z,82.87
2019-03-29T07:42:21.150Z,82.15
2019-03-29T07:43:20.013Z,82.15
2019-03-29T07:44:20.042Z,82.35
2019-03-29T07:45:19.987Z,82.15
2019-03-29T07:46:20.533Z,82.25
2019-03-29T07:47:20.002Z,82.83
2019-03-29T07:48:20.027Z,81.70
2019-03-29T07:49:20.036Z,80.98
2019-03-29T07:50:19.960Z,81.19
2019-03-29T07:51:19.976Z,80.67
2019-03-29T07:52:19.951Z,80.63
2019-03-29T07:53:20.015Z,80.22
2019-03-29T07:54:19.896Z,80.33
2019-03-29T07:55:19.922Z,79.88
2019-03-29T07:56:20.162Z,79.26
2019-03-29T07:57:19.901Z,79.67
2019-03-29T07:58:19.837Z,79.57
2019-03-29T07:59:20.054Z,78.96
2019-03-29T08:00:20.622Z,79.43
2019-03-29T08:01:19.868Z,79.16
2019-03-29T08:02:19.815Z,79.22
2019-03-29T08:03:21.297Z,78.71
2019-03-29T08:04:21.674Z,78.40
2019-03-29T08:05:19.830Z,77.99
2019-03-29T08:06:20.006Z,78.57
2019-03-29T08:07:27.267Z,78.36
2019-03-29T08:08:25.035Z,77.85
2019-03-29T08:09:22.551Z,78.06
2019-03-29T08:10:27.415Z,77.55
2019-03-29T08:11:26.247Z,77.71
2019-03-29T08:12:22.078Z,77.40
2019-03-29T08:13:19.748Z,77.20
2019-03-29T08:14:19.673Z,77.40
2019-03-29T08:15:19.685Z,76.45
2019-03-29T08:16:19.696Z,76.86
2019-03-29T08:17:19.628Z,77.06
2019-03-29T08:18:19.692Z,76.86
2019-03-29T08:19:19.663Z,76.31
2019-03-29T08:20:41.924Z,76.62
2019-03-29T08:21:20.597Z,76.34
2019-03-29T08:22:19.636Z,76.51
2019-03-29T08:23:19.596Z,75.79
2019-03-29T08:24:19.606Z,76.72
2019-03-29T08:25:19.551Z,75.90
2019-03-29T08:26:19.559Z,75.76
2019-03-29T08:27:19.515Z,75.86
2019-03-29T08:28:19.507Z,75.86
2019-03-29T08:29:19.700Z,75.11
2019-03-29T08:30:19.564Z,74.90
2019-03-29T08:31:19.482Z,74.39
2019-03-29T08:32:19.511Z,73.88
2019-03-29T08:33:19.541Z,74.08
2019-03-29T08:34:19.738Z,73.98
2019-03-29T08:35:19.440Z,73.98
2019-03-29T08:36:19.473Z,74.19
2019-03-29T08:37:19.444Z,74.49
2019-03-29T08:38:19.441Z,74.15
2019-03-29T08:39:27.911Z,74.46
2019-03-29T08:40:20.541Z,74.26
2019-03-29T08:41:25.224Z,74.15
2019-03-29T08:42:21.286Z,74.02
2019-03-29T08:43:19.501Z,73.40
2019-03-29T08:44:19.444Z,73.06
2019-03-29T08:45:19.328Z,73.27
2019-03-29T08:46:19.320Z,73.27
2019-03-29T08:47:19.337Z,73.13
2019-03-29T08:48:19.343Z,72.62
2019-03-29T08:49:19.419Z,71.29
2019-03-29T08:50:19.398Z,72.00
2019-03-29T08:51:19.286Z,71.15
2019-03-29T08:52:19.328Z,71.97
2019-03-29T08:53:19.238Z,71.97
2019-03-29T08:54:19.258Z,71.87
2019-03-29T08:55:19.239Z,71.77
2019-03-29T08:56:19.211Z,71.56
2019-03-29T08:57:19.195Z,71.33
2019-03-29T08:58:19.590Z,70.10
2019-03-29T08:59:19.205Z,70.00
2019-03-29T09:00:19.161Z,70.92
2019-03-29T09:01:19.822Z,70.47
2019-03-29T09:02:19.175Z,70.27
2019-03-29T09:03:19.205Z,70.27
2019-03-29T09:04:21.692Z,69.65
2019-03-29T09:05:19.162Z,70.06
2019-03-29T09:06:19.223Z,69.42
2019-03-29T09:07:19.104Z,69.21
2019-03-29T09:08:20.038Z,68.88
2019-03-29T09:09:19.140Z,68.77
2019-03-29T09:10:19.097Z,68.06
2019-03-29T09:11:19.099Z,68.37
2019-03-29T09:12:19.029Z,68.33
2019-03-29T09:13:19.057Z,68.33
2019-03-29T09:14:19.003Z,68.84
2019-03-29T09:15:19.051Z,67.79
2019-03-29T09:16:18.994Z,68.13
2019-03-29T09:17:20.731Z,67.69
2019-03-29T09:18:18.965Z,66.91
2019-03-29T09:19:19.007Z,67.79
2019-03-29T09:20:19.003Z,67.38
2019-03-29T09:21:19.001Z,67.59
2019-03-29T09:22:18.918Z,67.66
2019-03-29T09:23:18.894Z,66.67
2019-03-29T09:24:22.297Z,66.94
2019-03-29T09:25:21.006Z,67.12
2019-03-29T09:26:18.928Z,66.20
2019-03-29T09:27:18.874Z,65.66
2019-03-29T09:28:18.891Z,65.12
2019-03-29T09:29:18.888Z,65.12
2019-03-29T09:30:19.149Z,64.92
2019-03-29T09:31:18.956Z,64.61
2019-03-29T09:32:18.850Z,65.33
2019-03-29T09:33:19.019Z,65.19
2019-03-29T09:34:18.792Z,64.69
2019-03-29T09:35:18.794Z,64.58
2019-03-29T09:36:18.790Z,64.18
2019-03-29T09:37:18.881Z,64.89
2019-03-29T09:38:18.748Z,63.84
2019-03-29T09:39:18.714Z,63.26
2019-03-29T09:40:18.731Z,63.23
2019-03-29T09:41:18.765Z,63.54
2019-03-29T09:42:29.216Z,64.65
2019-03-29T09:43:19.732Z,63.10
2019-03-29T09:44:18.731Z,61.65
2019-03-29T09:45:18.691Z,61.72
2019-03-29T09:46:18.638Z,61.41
2019-03-29T09:47:18.662Z,61.04
2019-03-29T09:48:18.734Z,61.24
2019-03-29T09:49:18.622Z,60.94
2019-03-29T09:50:18.593Z,61.21
2019-03-29T09:51:18.586Z,60.81
2019-03-29T09:52:18.576Z,60.91
2019-03-29T09:53:18.625Z,61.11
2019-03-29T09:54:20.375Z,60.98
2019-03-29T09:55:19.212Z,60.17
2019-03-29T09:56:37.562Z,59.66
2019-03-29T09:57:19.510Z,58.95
2019-03-29T09:58:18.553Z,59.23
2019-03-29T09:59:18.528Z,58.72
2019-03-29T10:00:22.970Z,58.49
2019-03-29T10:01:20.889Z,57.78
2019-03-29T10:02:18.498Z,58.18
2019-03-29T10:03:18.504Z,58.69
2019-03-29T10:04:18.435Z,58.59
2019-03-29T10:05:20.203Z,58.09
2019-03-29T10:06:18.530Z,57.68
2019-03-29T10:07:18.401Z,57.88
2019-03-29T10:08:18.415Z,57.45
2019-03-29T10:09:18.428Z,57.15
2019-03-29T10:10:19.211Z,57.15
2019-03-29T10:11:20.533Z,56.54
2019-03-29T10:12:18.448Z,56.34
2019-03-29T10:13:18.482Z,55.80
2019-03-29T10:14:18.313Z,56.51
2019-03-29T10:15:18.340Z,55.80
2019-03-29T10:16:18.391Z,55.50
2019-03-29T10:17:18.295Z,56.54
2019-03-29T10:18:18.332Z,56.34
2019-03-29T10:19:18.277Z,56.03
2019-03-29T10:20:18.416Z,56.34
2019-03-29T10:21:18.299Z,57.24
2019-03-29T10:22:18.228Z,56.31
2019-03-29T10:23:18.231Z,56.48
2019-03-29T10:24:18.247Z,55.37
2019-03-29T10:25:20.138Z,54.76
2019-03-29T10:26:18.216Z,54.44
2019-03-29T10:27:19.231Z,53.22
2019-03-29T10:28:18.231Z,54.41
2019-03-29T10:29:18.152Z,52.99
2019-03-29T10:30:19.097Z,52.28
2019-03-29T10:31:31.498Z,51.57
2019-03-29T10:32:19.131Z,52.48
2019-03-29T10:33:18.169Z,52.99
2019-03-29T10:34:18.749Z,53.42
2019-03-29T10:35:18.858Z,53.83
2019-03-29T10:36:19.863Z,54.74
2019-03-29T10:37:18.089Z,54.64
2019-03-29T10:38:19.401Z,55.65
2019-03-29T10:39:18.069Z,54.03
2019-03-29T10:40:21.675Z,52.61
2019-03-29T10:41:18.050Z,54.05
2019-03-29T10:42:18.167Z,54.53
2019-03-29T10:43:18.047Z,54.16
2019-03-29T10:44:18.068Z,53.83
2019-03-29T10:45:17.966Z,54.61
2019-03-29T10:46:18.077Z,52.97
2019-03-29T10:47:18.536Z,52.67
2019-03-29T10:48:19.172Z,52.97
2019-03-29T10:49:18.026Z,54.08
2019-03-29T10:50:17.988Z,52.03
2019-03-29T10:51:17.890Z,51.96
2019-03-29T10:52:17.931Z,51.96
2019-03-29T10:53:17.885Z,51.73
2019-03-29T10:54:17.921Z,52.23
2019-03-29T10:55:17.909Z,51.55
2019-03-29T10:56:17.844Z,51.43
2019-03-29T10:57:18.048Z,51.53
2019-03-29T10:58:17.822Z,50.82
2019-03-29T10:59:27.261Z,50.82
2019-03-29T11:00:21.479Z,51.12
2019-03-29T11:01:17.957Z,51.53
2019-03-29T11:02:17.792Z,51.03
2019-03-29T11:03:18.101Z,50.92
2019-03-29T11:04:18.298Z,50.34
2019-03-29T11:05:18.771Z,51.65
2019-03-29T11:06:19.598Z,51.63
2019-03-29T11:07:17.758Z,51.03
2019-03-29T11:08:17.994Z,50.80
2019-03-29T11:09:17.923Z,49.99
2019-03-29T11:10:17.727Z,50.78
2019-03-29T11:11:17.845Z,50.27
2019-03-29T11:12:17.769Z,49.76
2019-03-29T11:13:18.080Z,49.87
2019-03-29T11:14:17.830Z,49.26
2019-03-29T11:15:17.639Z,49.87
2019-03-29T11:16:17.715Z,49.26
2019-03-29T11:17:17.762Z,49.56
2019-03-29T11:18:17.830Z,49.84
2019-03-29T11:19:18.315Z,49.54
2019-03-29T11:20:18.886Z,49.26
2019-03-29T11:21:17.781Z,49.56
2019-03-29T11:22:17.916Z,49.16
2019-03-29T11:23:17.585Z,49.96
2019-03-29T11:24:17.547Z,49.26
2019-03-29T11:25:17.541Z,49.26
2019-03-29T11:26:17.510Z,49.76
2019-03-29T11:27:17.578Z,49.64
2019-03-29T11:28:17.498Z,49.64
2019-03-29T11:29:17.816Z,48.43
2019-03-29T11:30:17.969Z,49.52
2019-03-29T11:31:17.475Z,49.62
2019-03-29T11:32:17.577Z,48.66
2019-03-29T11:33:17.456Z,47.23
2019-03-29T11:34:20.726Z,47.23
2019-03-29T11:35:17.581Z,46.95
2019-03-29T11:36:17.638Z,47.23
2019-03-29T11:37:19.592Z,46.53
2019-03-29T11:38:17.417Z,46.93
2019-03-29T11:39:17.414Z,46.53
2019-03-29T11:40:17.352Z,46.12
2019-03-29T11:41:17.431Z,45.90
2019-03-29T11:42:17.343Z,45.90
2019-03-29T11:43:26.724Z,45.90
2019-03-29T11:44:18.348Z,46.02
2019-03-29T11:45:17.307Z,45.90
2019-03-29T11:46:17.371Z,45.90
2019-03-29T11:47:17.290Z,46.50
2019-03-29T11:48:17.302Z,46.40
2019-03-29T11:49:17.357Z,46.18
2019-03-29T11:50:17.318Z,44.87
2019-03-29T11:51:19.695Z,45.05
2019-03-29T11:52:17.284Z,45.87
2019-03-29T11:53:17.756Z,45.47
2019-03-29T11:54:18.910Z,45.87
2019-03-29T11:55:17.304Z,45.17
2019-03-29T11:56:17.171Z,44.95
2019-03-29T11:57:17.155Z,43.84
2019-03-29T11:58:17.158Z,44.65
2019-03-29T11:59:17.258Z,44.85
2019-03-29T12:00:17.131Z,44.67
2019-03-29T12:01:17.118Z,45.09
2019-03-29T12:02:30.654Z,45.17
2019-03-29T12:03:18.108Z,44.85
2019-03-29T12:04:17.091Z,45.65
2019-03-29T12:05:18.160Z,44.63
2019-03-29T12:06:17.056Z,43.62
2019-03-29T12:07:17.212Z,43.60
2019-03-29T12:08:17.048Z,43.80
2019-03-29T12:09:17.088Z,43.80
2019-03-29T12:10:17.014Z,43.60
2019-03-29T12:11:17.162Z,43.82
2019-03-29T12:12:17.051Z,44.63
2019-03-29T12:13:18.006Z,44.71
2019-03-29T12:14:18.264Z,44.00
2019-03-29T12:15:17.065Z,43.52
2019-03-29T12:16:16.959Z,43.44
2019-03-29T12:17:17.494Z,44.45
2019-03-29T12:18:16.971Z,43.62
2019-03-29T12:19:16.922Z,44.15
2019-03-29T12:20:16.904Z,44.75
2019-03-29T12:21:16.955Z,45.43
2019-03-29T12:22:16.947Z,44.12
2019-03-29T12:23:16.915Z,43.10
2019-03-29T12:24:16.862Z,43.28
2019-03-29T12:25:16.946Z,43.50
2019-03-29T12:26:16.857Z,43.40
2019-03-29T12:27:18.046Z,43.38
2019-03-29T12:28:16.876Z,43.18
2019-03-29T12:29:16.884Z,42.46
2019-03-29T12:30:30.617Z,41.55
2019-03-29T12:31:17.912Z,40.73
2019-03-29T12:32:16.782Z,40.23
2019-03-29T12:33:16.758Z,40.53
2019-03-29T12:34:16.842Z,41.23
2019-03-29T12:35:16.751Z,40.83
2019-03-29T12:36:16.747Z,40.13
2019-03-29T12:37:16.718Z,40.53
2019-03-29T12:38:16.762Z,39.83
2019-03-29T12:39:16.803Z,40.83
2019-03-29T12:40:16.720Z,40.43
2019-03-29T12:41:16.701Z,40.71
2019-03-29T12:42:16.676Z,40.51
2019-03-29T12:43:16.650Z,39.91
2019-03-29T12:44:16.789Z,39.49
2019-03-29T12:45:16.655Z,39.89
2019-03-29T12:46:16.655Z,40.39
2019-03-29T12:47:16.603Z,40.17
2019-03-29T12:48:16.609Z,40.05
2019-03-29T12:49:16.671Z,39.15
2019-03-29T12:50:16.596Z,40.07
2019-03-29T12:51:16.589Z,40.57
2019-03-29T12:52:16.582Z,40.17